Latest Weather Observations for Yanakie

IDV60801

Issued at 8:02 am EST Saturday 24 August 2019 (issued every 10 minutes, with the page automatically refreshed every 10 minutes)

About weather observations | Map of weather stations | Latest weather observations for VIC | Other Formats
Station Details ID: 085301 Name: YANAKIE Lat: -38.81 Lon: 146.19 Height: 13.3 m
Data from the previous 72 hours. | See also: Recent months at Yanakie
Date/Time
EST
Temp
°C
App
Temp
°C
Dew
Point
°C
Rel
Hum
%
Delta-T
°C
Wind Press
QNH
hPa
Press
MSL
hPa
Rain since
9am
mm
Dir  Spd
km/h
Gust
km/h
Spd
kts
Gust
kts
24/08:00am 11.6 7.5 8.5 81 1.5 NNW 20 32 11 17 1014.0 1014.0 0.0
24/07:30am 11.3 7.0 8.0 80 1.6 NNW 20 32 11 17 1014.2 1014.2 0.0
24/07:00am 10.2 5.8 7.4 83 1.3 NNW 20 32 11 17 1014.3 1014.3 0.0
24/06:30am 10.1 7.4 7.3 83 1.3 NNW 11 17 6 9 1014.6 1014.6 0.0
24/06:00am 9.5 6.0 7.1 85 1.1 NW 15 22 8 12 1014.9 1014.9 0.0
24/05:30am 9.1 6.0 7.1 87 0.9 NNW 13 24 7 13 1015.2 1015.2 0.0
24/05:00am 8.7 5.5 6.8 88 0.9 NNW 13 22 7 12 1015.3 1015.3 0.0
24/04:30am 8.8 5.7 7.1 89 0.8 NNW 13 20 7 11 1015.5 1015.5 0.0
24/04:00am 7.9 4.7 6.7 92 0.6 NNW 13 20 7 11 1015.6 1015.6 0.0
24/03:30am 8.2 5.8 7.0 92 0.6 NNW 9 13 5 7 1015.8 1015.8 0.0
24/03:00am 7.4 4.9 6.7 95 0.3 NW 9 17 5 9 1016.0 1016.0 0.0
24/02:30am 8.2 4.7 7.4 95 0.4 NNW 15 20 8 11 1016.1 1016.1 0.0
24/02:00am 8.5 4.8 7.9 96 0.3 NW 17 26 9 14 1016.3 1016.3 0.0
24/01:30am 8.7 4.4 7.9 95 0.4 NNW 20 28 11 15 1016.7 1016.7 0.0
24/01:00am 8.4 4.8 8.3 99 0.0 NNW 17 28 9 15 1017.0 1017.0 0.0
24/12:30am 8.3 5.0 8.2 99 0.0 NW 15 28 8 15 1017.4 1017.4 0.0
24/12:00am 6.9 4.1 6.8 99 0.0 NW 11 13 6 7 1017.8 1017.8 0.0
 
Date/Time
EST
Temp
°C
App
Temp
°C
Dew
Point
°C
Rel
Hum
%
Delta-T
°C
Wind Press
QNH
hPa
Press
MSL
hPa
Rain since
9am
mm
Dir  Spd
km/h
Gust
km/h
Spd
kts
Gust
kts
23/11:30pm 8.0 5.0 7.7 98 0.1 NNW 13 19 7 10 1017.8 1017.8 0.0
23/11:00pm 8.8 4.9 8.5 98 0.1 NW 19 24 10 13 1018.0 1018.0 0.0
23/10:30pm 8.9 4.9 8.9 100 0.0 NNW 20 26 11 14 1018.2 1018.2 0.0
23/10:00pm 7.2 4.5 7.2 100 0.0 NNW 11 15 6 8 1018.6 1018.6 0.0
23/09:30pm 5.8 3.7 5.8 100 0.0 N 6 13 3 7 1018.9 1018.9 0.0
23/09:00pm 6.2 4.0 6.2 100 0.0 NNE 7 7 4 4 1019.3 1019.3 0.0
23/08:30pm 6.6 4.7 6.6 100 0.0 NNE 6 7 3 4 1019.6 1019.6 0.0
23/08:00pm 5.4 4.4 5.4 100 0.0 CALM 0 0 0 0 1019.6 1019.6 0.0
23/07:30pm 6.0 5.1 6.0 100 0.0 CALM 0 0 0 0 1019.8 1019.8 0.0
23/07:00pm 6.8 6.1 6.8 100 0.0 CALM 0 0 0 0 1019.7 1019.7 0.0
23/06:30pm 7.1 6.4 7.1 100 0.0 CALM 0 0 0 0 1019.7 1019.7 0.0
23/06:00pm 8.4 7.7 8.4 100 0.0 WSW 2 4 1 2 1019.6 1019.6 0.0
23/05:30pm 9.4 7.2 9.4 100 0.0 WSW 11 15 6 8 1019.6 1019.6 0.0
23/05:00pm 10.6 8.0 10.6 100 0.0 WSW 15 19 8 10 1019.6 1019.6 0.0
23/04:30pm 11.3 8.9 11.3 100 0.0 WSW 15 20 8 11 1019.7 1019.7 0.0
23/04:00pm 11.8 9.1 11.8 100 0.0 SW 17 22 9 12 1019.7 1019.7 0.0
23/03:30pm 12.3 9.7 12.1 99 0.1 SW 17 22 9 12 1019.7 1019.7 0.0
23/03:00pm 12.9 10.3 12.0 94 0.5 W 17 26 9 14 1020.0 1020.0 0.0
23/02:30pm 12.7 9.5 11.8 94 0.5 WNW 20 30 11 16 1020.1 1020.1 0.0
23/02:00pm 12.6 9.4 11.8 95 0.4 WNW 20 26 11 14 1020.5 1020.5 0.0
23/01:30pm 12.1 8.8 11.6 97 0.3 WNW 20 26 11 14 1020.8 1020.8 0.0
23/01:00pm 11.9 8.3 11.7 99 0.1 WNW 22 30 12 16 1021.4 1021.4 0.0
23/12:30pm 11.7 8.0 11.5 99 0.1 WNW 22 30 12 16 1021.9 1021.9 0.0
23/12:00pm 12.0 8.4 12.0 100 0.0 WNW 22 32 12 17 1022.5 1022.5 0.0
23/11:30am 11.5 7.4 11.3 99 0.1 WNW 24 32 13 17 1023.2 1023.2 0.0
23/11:00am 11.1 7.2 10.9 99 0.1 WNW 22 32 12 17 1023.6 1023.6 0.0
23/10:30am 10.9 7.0 10.7 99 0.1 WNW 22 30 12 16 1023.8 1023.8 0.0
23/10:00am 10.5 7.1 10.5 100 0.0 NW 19 28 10 15 1024.2 1024.2 0.0
23/09:30am 9.9 6.7 9.9 100 0.0 NW 17 22 9 12 1024.6 1024.6 0.0
23/09:00am 9.5 6.2 9.5 100 0.0 NW 17 24 9 13 1024.5 1024.5 0.2
23/08:30am 8.4 5.9 8.4 100 0.0 NW 11 15 6 8 1024.6 1024.6 0.2
23/08:00am 7.2 4.1 7.2 100 0.0 NW 13 17 7 9 1024.7 1024.7 0.2
23/07:30am 6.4 3.5 6.4 100 0.0 NW 11 13 6 7 1024.6 1024.6 0.2
23/07:00am 4.6 2.1 4.6 100 0.0 NW 7 9 4 5 1024.5 1024.5 0.2
23/06:30am 4.8 2.3 4.8 100 0.0 NW 7 9 4 5 1024.3 1024.3 0.2
23/06:00am 5.1 2.7 5.1 100 0.0 NW 7 9 4 5 1024.3 1024.3 0.2
23/05:30am 5.5 2.8 5.5 100 0.0 NW 9 11 5 6 1024.2 1024.2 0.2
23/05:00am 5.7 3.4 5.7 100 0.0 NW 7 7 4 4 1024.2 1024.2 0.2
23/04:30am 6.1 3.9 6.1 100 0.0 NW 7 9 4 5 1024.2 1024.2 0.2
23/04:00am 6.8 4.7 6.8 100 0.0 NW 7 11 4 6 1024.3 1024.3 0.2
23/03:30am 8.0 6.4 8.0 100 0.0 WNW 6 9 3 5 1024.6 1024.6 0.2
23/03:00am 8.4 5.9 8.4 100 0.0 W 11 19 6 10 1024.7 1024.7 0.2
23/02:30am 8.8 6.0 8.7 99 0.0 W 13 19 7 10 1025.0 1025.0 0.2
23/02:00am 8.2 6.1 8.2 100 0.0 WNW 9 13 5 7 1025.4 1025.4 0.2
23/01:30am 8.3 5.8 8.3 100 0.0 WNW 11 15 6 8 1025.3 1025.3 0.2
23/01:00am 8.4 5.9 8.4 100 0.0 W 11 17 6 9 1025.5 1025.5 0.2
23/12:30am 8.1 5.6 8.1 100 0.0 W 11 17 6 9 1025.6 1025.6 0.2
23/12:00am 7.7 5.1 7.6 99 0.0 W 11 15 6 8 1025.5 1025.5 0.2
 
Date/Time
EST
Temp
°C
App
Temp
°C
Dew
Point
°C
Rel
Hum
%
Delta-T
°C
Wind Press
QNH
hPa
Press
MSL
hPa
Rain since
9am
mm
Dir  Spd
km/h
Gust
km/h
Spd
kts
Gust
kts
22/11:30pm 8.8 5.3 8.7 99 0.0 WSW 17 20 9 11 1025.4 1025.4 0.2
22/11:00pm 9.3 5.8 8.8 97 0.2 W 17 24 9 13 1025.5 1025.5 0.2
22/10:30pm 9.5 6.0 8.7 95 0.4 WSW 17 22 9 12 1025.5 1025.5 0.2
22/10:00pm 9.5 6.0 8.7 95 0.4 SW 17 24 9 13 1025.6 1025.6 0.2
22/09:30pm 10.0 5.6 8.8 92 0.6 WSW 22 30 12 16 1025.6 1025.6 0.2
22/09:00pm 9.6 5.0 8.0 90 0.8 SW 22 32 12 17 1025.6 1025.6 0.2
22/08:30pm 9.8 5.8 8.2 90 0.8 SW 19 28 10 15 1025.5 1025.5 0.2
22/08:00pm 9.5 4.8 7.6 88 0.9 WSW 22 32 12 17 1025.3 1025.3 0.2
22/07:30pm 9.1 3.9 7.4 89 0.8 SW 24 32 13 17 1025.1 1025.1 0.2
22/07:00pm 9.3 3.9 8.2 93 0.5 SW 26 37 14 20 1024.7 1024.7 0.2
22/06:30pm 9.7 5.8 8.8 94 0.4 SW 19 30 10 16 1024.9 1024.9 0.2
22/06:00pm 9.7 3.8 7.6 87 1.0 WSW 28 35 15 19 1024.1 1024.1 0.2
22/05:30pm 9.9 4.6 8.3 90 0.8 SW 26 37 14 20 1024.1 1024.1 0.2
22/05:00pm 9.9 3.9 7.2 83 1.3 SW 28 39 15 21 1023.9 1023.9 0.2
22/04:30pm 10.3 4.6 8.2 87 1.0 SW 28 37 15 20 1023.5 1023.5 0.2
22/04:00pm 10.9 4.5 8.7 86 1.1 SW 32 41 17 22 1023.2 1023.2 0.2
22/03:30pm 11.1 5.4 8.5 84 1.3 SW 28 39 15 21 1022.8 1022.8 0.2
22/03:00pm 11.2 4.6 8.6 84 1.3 WSW 33 41 18 22 1022.4 1022.4 0.2
22/02:30pm 11.4 5.2 9.3 87 1.1 SW 32 43 17 23 1022.5 1022.5 0.2
22/02:00pm 11.6 5.2 9.2 85 1.2 SW 33 48 18 26 1022.7 1022.7 0.2
22/01:30pm 11.6 5.6 8.6 82 1.5 SW 30 39 16 21 1022.6 1022.6 0.2
22/01:00pm 11.4 5.4 8.6 83 1.4 SW 30 41 16 22 1022.4 1022.4 0.2
22/12:30pm 11.4 4.7 9.5 88 1.0 SW 35 46 19 25 1022.3 1022.3 0.2
22/12:00pm 11.0 4.7 9.8 92 0.6 SW 33 50 18 27 1022.3 1022.3 0.2
22/11:30am 11.0 4.5 10.2 95 0.4 SW 35 44 19 24 1022.3 1022.3 0.2
22/11:00am 11.0 4.9 10.4 96 0.3 SW 33 43 18 23 1022.1 1022.1 0.2
22/10:30am 10.7 4.7 10.7 100 0.0 SW 33 44 18 24 1021.6 1021.6 0.2
22/10:00am 8.3 -0.8 8.3 100 0.0 SW 46 72 25 39 1021.6 1021.6 0.0
22/09:54am 9.7 4.4 9.7 100 0.0 SW 28 72 15 39 1021.2 1021.2 0.0
22/09:30am 9.7 4.4 9.7 100 0.0 SW 28 39 15 21 1020.8 1020.8 0.0
22/09:00am 9.0 3.1 9.0 100 0.0 SW 30 43 16 23 1020.5 1020.5 9.0
22/08:30am 9.4 1.5 9.3 99 0.0 SW 41 56 22 30 1019.6 1019.6 9.0
22/08:00am 9.0 1.0 8.9 99 0.0 SW 41 54 22 29 1019.2 1019.2 9.0
22/07:38am 9.4 1.9 9.3 99 0.0 SW 39 59 21 32 1018.8 1018.8 8.8
22/07:30am 9.4 1.1 9.3 99 0.0 SW 43 54 23 29 1018.5 1018.5 8.8
22/07:00am 9.5 1.0 9.2 98 0.1 SW 44 61 24 33 1017.9 1017.9 8.8
22/06:54am 9.3 1.4 9.3 100 0.0 SW 41 61 22 33 1017.7 1017.7 8.8
22/06:30am 9.7 1.4 9.4 98 0.1 SW 43 57 23 31 1017.1 1017.1 8.8
22/06:15am 9.4 0.0 8.6 95 0.4 SW 48 72 26 39 1017.0 1017.0 8.8
22/06:00am 9.1 0.2 9.1 100 0.0 SW 46 63 25 34 1016.7 1016.7 8.8
22/05:35am 9.2 1.3 9.2 100 0.0 WSW 41 65 22 35 1016.4 1016.4 8.8
22/05:30am 9.2 1.6 9.2 100 0.0 WSW 39 56 21 30 1016.3 1016.3 8.8
22/05:00am 8.7 -0.7 8.7 100 0.0 WSW 48 72 26 39 1016.3 1016.3 8.8
22/04:30am 9.3 1.0 9.2 99 0.0 WSW 43 61 23 33 1015.9 1015.9 8.8
22/04:05am 10.0 1.2 9.4 96 0.3 WSW 46 65 25 35 1015.4 1015.4 8.6
22/04:00am 10.1 0.8 9.3 95 0.4 SW 48 67 26 36 1015.4 1015.4 8.6
22/03:30am 10.3 2.2 10.0 98 0.2 WSW 43 63 23 34 1015.4 1015.4 8.6
22/03:08am 10.3 0.6 8.9 91 0.7 SW 50 69 27 37 1014.8 1014.8 8.6
22/03:00am 10.4 0.8 9.5 94 0.4 SW 50 67 27 36 1014.6 1014.6 8.6
22/02:30am 10.5 3.3 10.5 100 0.0 WSW 39 59 21 32 1014.1 1014.1 8.6
22/02:03am 10.7 3.5 10.7 100 0.0 WSW 39 63 21 34 1013.9 1013.9 8.2
22/02:00am 10.8 3.3 10.8 100 0.0 WSW 41 59 22 32 1013.6 1013.6 7.8
22/01:58am 10.9 3.0 10.9 100 0.0 WSW 43 59 23 32 1013.6 1013.6 7.8
22/01:30am 11.4 0.9 11.1 98 0.2 WSW 57 87 31 47 1013.1 1013.1 7.8
22/01:00am 11.6 2.6 11.6 100 0.0 WSW 50 70 27 38 1012.5 1012.5 7.8
22/12:30am 11.8 2.5 11.8 100 0.0 WSW 52 74 28 40 1011.9 1011.9 7.8
22/12:00am 11.9 1.9 11.9 100 0.0 WSW 56 76 30 41 1011.3 1011.3 7.8
 
Date/Time
EST
Temp
°C
App
Temp
°C
Dew
Point
°C
Rel
Hum
%
Delta-T
°C
Wind Press
QNH
hPa
Press
MSL
hPa
Rain since
9am
mm
Dir  Spd
km/h
Gust
km/h
Spd
kts
Gust
kts
21/11:30pm 11.9 1.9 11.9 100 0.0 W 56 80 30 43 1011.0 1011.0 7.8
21/11:00pm 11.9 1.7 11.9 100 0.0 WSW 57 82 31 44 1011.0 1011.0 7.8
21/10:30pm 11.3 1.5 11.3 100 0.0 WSW 54 76 29 41 1010.9 1010.9 6.8
21/10:01pm 11.3 1.1 11.3 100 0.0 W 56 76 30 41 1010.7 1010.7 3.6
21/10:00pm 11.4 1.2 11.4 100 0.0 W 56 69 30 37 1010.8 1010.8 3.6
21/09:30pm 11.7 1.0 11.7 100 0.0 W 59 83 32 45 1010.5 1010.5 1.2
21/09:00pm 12.1 2.5 12.1 100 0.0 WNW 54 76 29 41 1010.5 1010.5 1.0
21/08:40pm 11.9 2.2 11.9 100 0.0 WNW 54 74 29 40 1010.6 1010.6 1.0
21/08:30pm 11.6 1.8 11.6 100 0.0 WNW 54 69 29 37 1010.9 1010.9 1.0
21/08:06pm 10.9 3.0 10.9 100 0.0 WNW 43 61 23 33 1011.4 1011.4 0.8
21/08:00pm 10.9 2.8 10.9 100 0.0 WNW 44 59 24 32 1011.6 1011.6 0.8
21/07:34pm 11.1 3.3 11.1 100 0.0 W 43 65 23 35 1012.1 1012.1 0.4
21/07:30pm 11.0 3.2 11.0 100 0.0 W 43 57 23 31 1012.2 1012.2 0.4
21/07:01pm 10.8 2.0 10.8 100 0.0 W 48 69 26 37 1012.6 1012.6 0.4
21/07:00pm 10.8 1.6 10.8 100 0.0 W 50 69 27 37 1012.6 1012.6 0.2
21/06:30pm 11.3 3.4 11.3 100 0.0 W 44 65 24 35 1013.2 1013.2 0.2
21/06:15pm 11.1 3.7 11.1 100 0.0 W 41 61 22 33 1013.3 1013.3 0.2
21/06:00pm 11.6 3.4 11.6 100 0.0 W 46 61 25 33 1013.5 1013.5 0.0
21/05:30pm 11.1 3.7 11.1 100 0.0 W 41 59 22 32 1013.8 1013.8 0.0
21/05:02pm 11.1 3.3 11.1 100 0.0 W 43 70 23 38 1013.8 1013.8 0.0
21/05:00pm 11.5 4.2 11.5 100 0.0 W 41 52 22 28 1013.9 1013.9 0.0
21/04:30pm 11.8 4.0 11.8 100 0.0 W 44 65 24 35 1014.2 1014.2 0.0
21/04:08pm 11.5 3.6 11.5 100 0.0 W 44 65 24 35 1014.4 1014.4 0.0
21/04:00pm 11.7 4.4 11.7 100 0.0 W 41 57 22 31 1014.3 1014.3 0.0
21/03:30pm 12.0 2.7 12.0 100 0.0 W 52 65 28 35 1014.9 1014.9 0.0
21/03:00pm 12.2 4.1 12.2 100 0.0 W 46 63 25 34 1014.5 1014.5 0.0
21/02:34pm 11.9 4.3 11.9 100 0.0 W 43 63 23 34 1015.2 1015.2 0.0
21/02:30pm 12.0 4.8 12.0 100 0.0 W 41 59 22 32 1015.3 1015.3 0.0
21/02:00pm 12.5 4.5 12.3 99 0.1 W 46 61 25 33 1014.9 1014.9 0.0
21/01:35pm 12.5 4.2 12.5 100 0.0 W 48 67 26 36 1015.0 1015.0 0.0
21/01:30pm 12.8 4.2 12.8 100 0.0 W 50 67 27 36 1015.0 1015.0 0.0
21/01:00pm 12.6 4.7 12.6 100 0.0 W 46 69 25 37 1015.3 1015.3 0.0
21/12:35pm 12.5 4.2 12.5 100 0.0 W 48 72 26 39 1015.4 1015.4 0.0
21/12:30pm 12.6 4.3 12.6 100 0.0 W 48 61 26 33 1015.4 1015.4 0.0
21/12:19pm 12.7 4.4 12.5 99 0.1 W 48 69 26 37 1015.5 1015.5 0.0
21/12:00pm 12.8 3.8 12.8 100 0.0 W 52 69 28 37 1015.7 1015.7 0.0
21/11:35am 12.7 4.4 12.7 100 0.0 W 48 74 26 40 1015.6 1015.6 0.0
21/11:30am 13.1 5.0 13.1 100 0.0 W 48 65 26 35 1015.8 1015.8 0.0
21/11:00am 12.6 3.1 12.3 98 0.2 W 54 70 29 38 1015.5 1015.5 0.0
21/10:30am 12.6 3.5 12.4 99 0.1 W 52 72 28 39 1015.4 1015.4 0.0
21/10:00am 12.4 2.8 12.2 99 0.1 W 54 74 29 40 1015.2 1015.2 0.0
21/09:30am 12.4 3.3 12.4 100 0.0 WSW 52 72 28 39 1015.0 1015.0 0.0
21/09:11am 12.2 3.0 12.2 100 0.0 W 52 70 28 38 1015.0 1015.0 0.0
21/09:00am 12.1 2.4 11.9 99 0.1 WSW 54 70 29 38 1014.9 1014.9 19.4
21/08:35am 11.9 3.0 11.9 100 0.0 W 50 70 27 38 1014.7 1014.7 19.4
21/08:30am 12.1 3.6 12.1 100 0.0 W 48 61 26 33 1014.7 1014.7 19.4

Other formats

Comma delimited format used in spreadsheet applications
http://www.bom.gov.au/fwo/IDV60801/IDV60801.94911.axf

JavaScript Object Notation format (JSON) in row-major order
http://www.bom.gov.au/fwo/IDV60801/IDV60801.94911.json

Data quality

Most of these data are generated automatically and are frequently updated. Quality checks on data are not normally performed. It is possible for incorrect values to appear. Refer to information at About Latest Weather Observations and please check the disclaimer before using these data.